Time;durP1;ratioP1;P1;durP2;ratioP2;P2;SDS_P1;SDS_P2;PMS_P1;PMS_P2;Temp;Humidity;BMP_temperature;BMP_pressure;BME280_temperature;BME280_humidity;BME280_pressure;Samples;Min_cycle;Max_cycle;Signal;HPM_P1;HPM_P2
2021/04/09 00:00:45;;;;;;;14.57;9.70;;;;;;;2.03;71.69;96468.06;5061830;28;20450;-89
2021/04/09 00:03:12;;;;;;;16.07;9.30;;;;;;;2.04;71.64;96469.50;5061741;28;20485;-89
2021/04/09 00:05:40;;;;;;;17.73;10.50;;;;;;;1.98;71.89;96462.72;5062589;28;20435;-89
2021/04/09 00:08:07;;;;;;;19.77;11.13;;;;;;;1.93;71.51;96469.47;5061804;28;20486;-89
2021/04/09 00:10:34;;;;;;;15.50;8.60;;;;;;;1.92;72.35;96473.34;5061705;28;20445;-89
2021/04/09 00:13:00;;;;;;;14.43;9.60;;;;;;;1.92;72.32;96461.97;5061881;28;20833;-89
2021/04/09 00:15:26;;;;;;;18.63;9.73;;;;;;;1.88;72.40;96469.47;5061221;28;20588;-89
2021/04/09 00:17:53;;;;;;;20.33;11.20;;;;;;;1.82;72.33;96460.72;5060872;28;20458;-89
2021/04/09 00:20:20;;;;;;;13.83;8.43;;;;;;;1.81;72.71;96461.94;5059912;28;20538;-89
2021/04/09 00:22:48;;;;;;;15.93;8.33;;;;;;;1.76;72.64;96452.72;5060726;28;20939;-90
2021/04/09 00:25:15;;;;;;;21.63;10.63;;;;;;;1.71;73.46;96453.44;5060432;28;20489;-89
2021/04/09 00:27:44;;;;;;;16.17;9.37;;;;;;;1.69;73.41;96453.22;5062512;28;20470;-90
2021/04/09 00:30:17;;;;;;;15.30;9.43;;;;;;;1.73;73.59;96447.63;5063283;28;20446;-89
2021/04/09 00:32:43;;;;;;;18.00;9.80;;;;;;;1.67;73.59;96447.63;5061730;28;20466;-89
2021/04/09 00:35:11;;;;;;;13.63;9.40;;;;;;;1.60;74.11;96456.03;5060694;28;20462;-89
2021/04/09 00:37:37;;;;;;;22.57;10.40;;;;;;;1.59;74.11;96449.28;5062150;28;20833;-89
2021/04/09 00:40:05;;;;;;;14.23;9.13;;;;;;;1.54;74.19;96447.31;5061543;28;20497;-89
2021/04/09 00:42:31;;;;;;;14.03;9.03;;;;;;;1.52;74.38;96445.16;5060112;28;20541;-89
2021/04/09 00:44:58;;;;;;;17.63;9.07;;;;;;;1.51;74.23;96445.63;5060643;28;20453;-89
2021/04/09 00:47:24;;;;;;;16.27;9.70;;;;;;;1.53;74.39;96441.31;5060552;28;20449;-89
2021/04/09 00:49:51;;;;;;;16.43;10.07;;;;;;;1.55;74.55;96440.81;5060721;28;20518;-89
2021/04/09 00:52:18;;;;;;;14.40;9.20;;;;;;;1.53;74.72;96437.91;5060826;28;20537;-89
2021/04/09 00:54:44;;;;;;;13.30;9.07;;;;;;;1.50;74.55;96441.53;5060613;28;20510;-89
2021/04/09 00:57:12;;;;;;;14.57;9.20;;;;;;;1.54;74.21;96432.09;5061204;28;20443;-88
2021/04/09 00:59:38;;;;;;;18.93;10.20;;;;;;;1.49;74.39;96427.50;5060619;28;20495;-89
2021/04/09 01:02:05;;;;;;;13.40;8.57;;;;;;;1.51;74.23;96433.06;5060928;28;20433;-89
2021/04/09 01:04:31;;;;;;;16.27;9.40;;;;;;;1.57;74.15;96425.09;5060167;28;20522;-88
2021/04/09 01:06:57;;;;;;;15.77;9.50;;;;;;;1.58;73.90;96424.63;5060535;28;20446;-89
2021/04/09 01:09:23;;;;;;;15.80;8.90;;;;;;;1.54;74.17;96418.81;5060687;28;20922;-88
2021/04/09 01:11:50;;;;;;;18.83;10.10;;;;;;;1.52;73.97;96412.53;5060670;28;20467;-89
2021/04/09 01:14:17;;;;;;;14.03;9.40;;;;;;;1.52;74.46;96420.50;5060419;28;20468;-88
2021/04/09 01:16:48;;;;;;;15.90;8.63;;;;;;;1.50;74.01;96413.00;5060426;28;20595;-89
2021/04/09 01:19:32;;;;;;;17.93;9.67;;;;;;;1.52;74.29;96415.19;5060694;28;20433;-88
2021/04/09 01:22:02;;;;;;;12.20;9.03;;;;;;;1.49;74.37;96418.78;5061591;28;20470;-89
2021/04/09 01:24:54;;;;;;;17.03;9.67;;;;;;;1.51;74.05;96409.13;5061046;28;20495;-89
2021/04/09 01:27:51;;;;;;;15.40;8.37;;;;;;;1.47;74.19;96407.91;5061103;28;20819;-88
2021/04/09 01:30:42;;;;;;;19.73;11.57;;;;;;;1.42;74.45;96412.00;5061774;28;20422;-89
2021/04/09 01:33:10;;;;;;;20.73;9.83;;;;;;;1.41;74.78;96409.84;5062074;28;20491;-89
2021/04/09 01:35:40;;;;;;;16.73;10.20;;;;;;;1.38;74.56;96405.47;5075332;28;20511;-89
2021/04/09 01:38:08;;;;;;;14.73;9.70;;;;;;;1.38;75.12;96402.81;5077692;28;20441;-88
2021/04/09 01:40:37;;;;;;;15.17;8.73;;;;;;;1.47;74.55;96405.97;5078584;28;20453;-89
2021/04/09 01:43:07;;;;;;;15.23;9.80;;;;;;;1.46;74.51;96404.53;5077458;28;20508;-89
2021/04/09 01:45:34;;;;;;;12.80;9.17;;;;;;;1.44;74.40;96403.56;5078980;28;20402;-89
2021/04/09 01:48:02;;;;;;;17.20;9.23;;;;;;;1.42;74.28;96404.03;5078624;28;20478;-89
2021/04/09 01:50:32;;;;;;;16.23;9.40;;;;;;;1.44;74.34;96408.88;5078989;28;20454;-89
2021/04/09 01:52:59;;;;;;;14.20;9.03;;;;;;;1.42;74.14;96403.28;5070717;28;20569;-89
2021/04/09 01:55:28;;;;;;;19.93;8.80;;;;;;;1.46;74.42;96398.50;5058782;28;20447;-89
2021/04/09 01:57:57;;;;;;;14.70;8.53;;;;;;;1.50;74.25;96393.69;5059377;28;20482;-89
2021/04/09 02:00:25;;;;;;;16.63;8.97;;;;;;;1.53;73.73;96390.78;5059547;28;20870;-89
2021/04/09 02:02:53;;;;;;;16.37;9.57;;;;;;;1.58;73.33;96392.00;5059058;28;20450;-89
2021/04/09 02:05:23;;;;;;;17.53;9.50;;;;;;;1.55;73.41;96390.28;5058211;28;20421;-88
2021/04/09 02:07:52;;;;;;;13.60;8.63;;;;;;;1.53;73.82;96377.50;5060312;28;20767;-89
2021/04/09 02:10:20;;;;;;;17.60;8.73;;;;;;;1.54;73.54;96380.88;5059399;28;20509;-89
2021/04/09 02:12:47;;;;;;;13.70;8.80;;;;;;;1.52;73.37;96384.00;5059331;28;20458;-89
2021/04/09 02:15:17;;;;;;;13.77;8.40;;;;;;;1.53;73.22;96388.13;5058575;28;20875;-89
2021/04/09 02:17:43;;;;;;;14.53;8.50;;;;;;;1.50;73.38;96375.78;5058387;28;20503;-89
2021/04/09 02:20:11;;;;;;;14.37;8.63;;;;;;;1.47;73.89;96384.00;5059328;28;20524;-90
2021/04/09 02:22:38;;;;;;;15.20;9.17;;;;;;;1.53;73.67;96376.78;5058081;28;20549;-90
2021/04/09 02:25:07;;;;;;;13.63;8.27;;;;;;;1.53;73.04;96372.19;5059503;28;20513;-90
2021/04/09 02:27:33;;;;;;;11.47;7.90;;;;;;;1.53;73.12;96368.78;5059173;28;20446;-89
2021/04/09 02:30:00;;;;;;;11.23;7.73;;;;;;;1.60;72.32;96371.69;5059520;28;20537;-90
2021/04/09 02:32:26;;;;;;;10.40;7.30;;;;;;;1.61;72.45;96372.44;5059447;28;20469;-90
2021/04/09 02:34:52;;;;;;;10.60;6.83;;;;;;;1.63;72.18;96365.41;5059446;28;20530;-90
2021/04/09 02:37:19;;;;;;;15.20;7.93;;;;;;;1.67;71.70;96372.44;5059513;28;21061;-89
2021/04/09 02:39:50;;;;;;;14.30;7.47;;;;;;;1.64;72.09;96355.50;5058679;28;20438;-89
2021/04/09 02:42:17;;;;;;;11.33;8.00;;;;;;;1.60;71.95;96352.34;5058914;28;20545;-89
2021/04/09 02:44:43;;;;;;;10.60;5.77;;;;;;;1.58;72.73;96357.44;5058597;28;20477;-89
2021/04/09 02:47:13;;;;;;;11.73;7.07;;;;;;;1.59;72.18;96356.25;5058675;28;20447;-89
2021/04/09 02:49:40;;;;;;;10.23;7.27;;;;;;;1.60;72.31;96353.09;5063537;28;21058;-89
2021/04/09 02:52:13;;;;;;;12.83;7.00;;;;;;;1.60;72.18;96344.38;5081184;28;20453;-89
2021/04/09 02:54:42;;;;;;;10.73;6.33;;;;;;;1.58;72.29;96346.81;5082308;28;20426;-89
2021/04/09 02:57:12;;;;;;;16.27;7.90;;;;;;;1.56;72.23;96347.28;5081602;28;20449;-88
2021/04/09 02:59:39;;;;;;;11.87;6.57;;;;;;;1.59;71.82;96337.63;5076620;28;20513;-88
2021/04/09 03:02:06;;;;;;;9.20;6.43;;;;;;;1.56;72.42;96325.28;5079312;28;20450;-88
2021/04/09 03:04:33;;;;;;;11.20;7.37;;;;;;;1.54;71.95;96322.38;5082251;28;20414;-88
2021/04/09 03:06:59;;;;;;;9.80;6.07;;;;;;;1.51;72.16;96328.66;5082066;28;20426;-88
2021/04/09 03:09:26;;;;;;;11.70;6.60;;;;;;;1.54;72.40;96328.41;5080342;28;20509;-89
2021/04/09 03:11:52;;;;;;;9.30;5.43;;;;;;;1.54;72.37;96328.41;5066822;28;20543;-90
2021/04/09 03:14:18;;;;;;;10.70;6.70;;;;;;;1.58;71.46;96331.56;5071185;28;20434;-89
2021/04/09 03:16:49;;;;;;;13.60;6.43;;;;;;;1.59;71.85;96337.63;5082012;28;20482;-89
2021/04/09 03:19:15;;;;;;;9.90;6.90;;;;;;;1.63;71.31;96332.78;5074871;28;20478;-90
2021/04/09 03:21:41;;;;;;;15.13;6.27;;;;;;;1.66;71.21;96337.13;5062925;28;20441;-90
2021/04/09 03:24:08;;;;;;;12.53;6.50;;;;;;;1.67;71.04;96324.56;5063409;28;20461;-90
2021/04/09 03:26:34;;;;;;;11.97;6.30;;;;;;;1.66;70.98;96326.50;5062429;28;20489;-89
2021/04/09 03:29:00;;;;;;;13.40;7.03;;;;;;;1.67;70.89;96324.56;5062538;28;20565;-90
2021/04/09 03:31:27;;;;;;;10.30;5.50;;;;;;;1.69;70.79;96322.91;5063365;28;20501;-90
2021/04/09 03:33:54;;;;;;;10.20;6.07;;;;;;;1.68;70.95;96323.38;5062774;28;20449;-89
2021/04/09 03:36:20;;;;;;;10.70;6.90;;;;;;;1.72;70.98;96315.91;5063396;28;20456;-89
2021/04/09 03:38:46;;;;;;;11.90;5.50;;;;;;;1.75;70.39;96315.66;5063383;28;20506;-89
2021/04/09 03:41:12;;;;;;;12.47;5.80;;;;;;;1.73;70.54;96317.31;5062008;28;20554;-89
2021/04/09 03:43:38;;;;;;;9.37;5.63;;;;;;;1.73;70.26;96315.41;5061856;28;20427;-89
2021/04/09 03:46:04;;;;;;;13.80;6.70;;;;;;;1.74;70.03;96319.53;5061967;28;20458;-89
2021/04/09 03:48:30;;;;;;;6.33;5.10;;;;;;;1.73;69.96;96307.41;5062516;28;20573;-89
2021/04/09 03:50:57;;;;;;;9.00;4.97;;;;;;;1.80;70.04;96319.53;5063370;28;20422;-89
2021/04/09 03:53:23;;;;;;;6.50;4.50;;;;;;;1.82;69.50;96320.47;5062072;28;20470;-89
2021/04/09 03:55:49;;;;;;;6.03;4.40;;;;;;;1.87;69.48;96317.13;5063187;28;20525;-89
2021/04/09 03:58:15;;;;;;;11.03;4.83;;;;;;;1.88;68.90;96318.56;5062674;28;20495;-90
2021/04/09 04:00:42;;;;;;;10.20;5.70;;;;;;;1.96;68.70;96313.50;5061813;28;20503;-89
2021/04/09 04:03:09;;;;;;;10.17;5.10;;;;;;;2.02;68.63;96316.88;5062299;28;20536;-89
2021/04/09 04:05:35;;;;;;;10.33;5.70;;;;;;;2.03;67.98;96316.41;5062256;28;20459;-89
2021/04/09 04:08:02;;;;;;;16.93;4.90;;;;;;;2.07;67.91;96318.81;5062301;28;20510;-89
2021/04/09 04:10:28;;;;;;;6.90;4.93;;;;;;;2.09;67.86;96311.06;5062805;28;20580;-90
2021/04/09 04:12:54;;;;;;;12.17;7.43;;;;;;;2.11;67.98;96319.28;5062971;28;20463;-89
2021/04/09 04:15:20;;;;;;;7.17;4.87;;;;;;;2.10;67.38;96323.88;5062257;28;20446;-89
2021/04/09 04:17:46;;;;;;;8.33;4.80;;;;;;;2.12;67.63;96320.75;5062811;28;20449;-90
2021/04/09 04:20:13;;;;;;;7.93;5.20;;;;;;;2.18;67.19;96329.47;5062833;28;20525;-89
2021/04/09 04:22:39;;;;;;;10.50;4.80;;;;;;;2.17;67.55;96325.34;5062818;28;20829;-89
2021/04/09 04:25:08;;;;;;;6.20;4.77;;;;;;;2.15;67.64;96330.44;5063074;28;20504;-89
2021/04/09 04:27:34;;;;;;;7.00;4.90;;;;;;;2.17;67.41;96314.69;5063878;28;20474;-89
2021/04/09 04:30:01;;;;;;;12.73;5.73;;;;;;;2.21;67.18;96325.09;5064418;28;20482;-89
2021/04/09 04:32:27;;;;;;;9.13;5.17;;;;;;;2.22;67.05;96318.56;5063523;28;20596;-88
2021/04/09 04:34:53;;;;;;;10.47;5.17;;;;;;;2.19;67.10;96324.88;5063630;28;20449;-89
2021/04/09 04:37:19;;;;;;;14.07;6.23;;;;;;;2.19;67.47;96314.22;5063666;28;20458;-89
2021/04/09 04:39:45;;;;;;;10.20;5.00;;;;;;;2.22;67.37;96326.56;5062367;28;20462;-89
2021/04/09 04:42:13;;;;;;;11.33;5.37;;;;;;;2.13;67.60;96317.59;5064262;28;20514;-90
2021/04/09 04:44:39;;;;;;;16.40;6.10;;;;;;;2.16;67.18;96316.63;5064175;28;20522;-89
2021/04/09 04:47:05;;;;;;;8.93;5.23;;;;;;;2.16;67.18;96321.94;5068290;28;20466;-88
2021/04/09 04:49:31;;;;;;;11.57;7.10;;;;;;;2.20;67.28;96320.97;5067694;28;20493;-89
2021/04/09 04:51:58;;;;;;;12.50;6.40;;;;;;;2.27;67.01;96317.84;5064892;28;20471;-89
2021/04/09 04:54:24;;;;;;;8.63;6.03;;;;;;;2.37;66.96;96319.03;5063965;28;20488;-88
2021/04/09 04:56:50;;;;;;;10.67;6.37;;;;;;;2.50;66.62;96321.94;5064141;28;20456;-88
2021/04/09 04:59:17;;;;;;;8.47;6.90;;;;;;;2.66;65.80;96323.84;5063354;28;20498;-89
2021/04/09 05:01:43;;;;;;;11.77;6.20;;;;;;;2.82;65.28;96317.72;5064139;28;20463;-88
2021/04/09 05:04:09;;;;;;;10.80;6.97;;;;;;;2.87;65.39;96326.94;5064248;28;20498;-89
2021/04/09 05:06:35;;;;;;;11.47;7.10;;;;;;;2.92;64.74;96321.56;5063468;28;20469;-89
2021/04/09 05:09:01;;;;;;;15.10;6.93;;;;;;;3.02;64.56;96332.69;5062971;28;20538;-90
2021/04/09 05:11:27;;;;;;;14.47;7.73;;;;;;;3.09;64.66;96322.25;5062132;28;20859;-89
2021/04/09 05:13:53;;;;;;;13.90;7.30;;;;;;;3.28;63.81;96330.41;5064116;28;20850;-89
2021/04/09 05:16:20;;;;;;;13.40;7.47;;;;;;;3.37;63.75;96330.13;5061900;28;20485;-89
2021/04/09 05:18:46;;;;;;;13.43;7.23;;;;;;;3.67;63.06;96330.19;5063267;28;20530;-89
2021/04/09 05:21:14;;;;;;;15.43;7.30;;;;;;;4.05;62.29;96326.56;5063449;28;20539;-89
2021/04/09 05:23:40;;;;;;;17.10;6.53;;;;;;;4.43;61.12;96332.06;5063723;28;20493;-89
2021/04/09 05:26:06;;;;;;;18.43;7.43;;;;;;;4.66;60.08;96330.66;5063228;28;20523;-90
2021/04/09 05:28:32;;;;;;;8.50;6.27;;;;;;;5.05;59.35;96338.97;5064376;28;20879;-89
2021/04/09 05:30:58;;;;;;;13.13;7.23;;;;;;;5.52;57.49;96328.69;5063665;28;20410;-90
2021/04/09 05:33:25;;;;;;;13.40;8.83;;;;;;;6.11;55.24;96326.91;5062927;28;20912;-90
2021/04/09 05:35:52;;;;;;;15.20;7.03;;;;;;;6.36;53.92;96315.53;5063241;28;20503;-89
2021/04/09 05:38:18;;;;;;;14.53;7.20;;;;;;;6.25;54.71;96317.69;5063832;28;20445;-89
2021/04/09 05:40:44;;;;;;;16.23;7.07;;;;;;;6.30;53.90;96324.88;5062519;28;20447;-89
2021/04/09 05:43:10;;;;;;;19.53;7.57;;;;;;;6.36;53.31;96328.19;5062606;28;20489;-90
2021/04/09 05:45:36;;;;;;;19.67;7.93;;;;;;;6.45;53.27;96322.47;5062280;28;20477;-90
2021/04/09 05:48:05;;;;;;;12.80;7.67;;;;;;;6.59;53.29;96326.59;5062684;28;20530;-90
2021/04/09 05:50:33;;;;;;;12.43;7.33;;;;;;;6.80;51.96;96324.03;5062686;28;20429;-90
2021/04/09 05:52:59;;;;;;;11.33;7.13;;;;;;;6.85;51.80;96320.53;5063852;28;20485;-89
2021/04/09 05:55:25;;;;;;;14.13;8.03;;;;;;;6.96;52.31;96323.00;5062445;28;20446;-90
2021/04/09 05:57:53;;;;;;;15.20;8.57;;;;;;;7.06;51.31;96320.63;5062581;28;20427;-90
2021/04/09 06:00:20;;;;;;;13.23;7.87;;;;;;;7.46;50.89;96316.66;5061784;28;20433;-88
2021/04/09 06:02:46;;;;;;;15.60;8.10;;;;;;;7.60;50.69;96325.41;5061507;28;21009;-88
2021/04/09 06:05:13;;;;;;;15.33;8.47;;;;;;;7.90;49.76;96310.31;5061149;28;20456;-89
2021/04/09 06:07:40;;;;;;;15.10;7.23;;;;;;;8.28;49.00;96326.81;5065059;28;20516;-91
2021/04/09 06:10:07;;;;;;;12.60;7.43;;;;;;;8.87;47.38;96324.38;5061297;28;20582;-90
2021/04/09 06:12:34;;;;;;;14.47;8.00;;;;;;;8.90;47.05;96323.31;5061197;28;20493;-90
2021/04/09 06:15:00;;;;;;;13.57;7.43;;;;;;;9.14;46.41;96322.91;5062432;28;20442;-89
2021/04/09 06:17:26;;;;;;;21.87;7.80;;;;;;;8.87;46.92;96325.09;5064321;28;20539;-89
2021/04/09 06:19:52;;;;;;;16.83;7.27;;;;;;;9.00;46.94;96321.56;5063843;28;20495;-89
2021/04/09 06:22:18;;;;;;;19.10;7.30;;;;;;;8.67;46.94;96322.44;5064680;28;20477;-90
2021/04/09 06:24:45;;;;;;;16.33;8.13;;;;;;;8.57;47.47;96324.91;5068324;28;20405;-89
2021/04/09 06:27:12;;;;;;;14.40;7.20;;;;;;;8.44;48.20;96323.00;5068654;28;20552;-89
2021/04/09 06:29:38;;;;;;;17.73;6.63;;;;;;;8.31;47.86;96322.34;5068852;28;20580;-89
2021/04/09 06:32:05;;;;;;;11.20;7.03;;;;;;;7.96;49.00;96326.31;5068264;28;20523;-90
2021/04/09 06:34:31;;;;;;;15.60;7.13;;;;;;;7.83;49.95;96329.06;5069543;28;20510;-90
2021/04/09 06:36:57;;;;;;;11.30;6.80;;;;;;;8.28;49.27;96324.13;5067778;28;20497;-89
2021/04/09 06:39:23;;;;;;;14.30;6.87;;;;;;;8.81;48.08;96318.41;5068214;28;20810;-91
2021/04/09 06:41:50;;;;;;;12.00;7.07;;;;;;;8.77;48.11;96321.44;5069749;28;20429;-91
2021/04/09 06:47:00;;;;;;;14.00;8.10;;;;;;;8.96;47.85;96321.19;5063455;28;20977;-90
2021/04/09 06:49:26;;;;;;;15.43;6.67;;;;;;;9.29;47.27;96330.34;5069179;28;20520;-89
2021/04/09 06:51:55;;;;;;;13.53;7.13;;;;;;;9.71;46.25;96326.19;5068299;28;20436;-89
2021/04/09 06:54:23;;;;;;;15.17;7.93;;;;;;;9.46;46.25;96325.91;5069675;28;20440;-88
2021/04/09 06:56:51;;;;;;;16.23;7.30;;;;;;;9.58;46.75;96329.03;5068333;28;20480;-88
2021/04/09 06:59:23;;;;;;;19.20;7.43;;;;;;;9.87;45.88;96330.34;5068503;28;20469;-88
2021/04/09 07:01:51;;;;;;;10.10;6.20;;;;;;;10.10;45.07;96331.13;5072356;28;20444;-86
2021/04/09 07:04:18;;;;;;;12.57;7.67;;;;;;;10.16;44.98;96331.69;5072731;28;20416;-88
2021/04/09 07:06:44;;;;;;;16.33;7.40;;;;;;;10.63;43.64;96330.44;5071636;28;20466;-86
2021/04/09 07:09:13;;;;;;;13.50;7.53;;;;;;;10.90;43.46;96322.69;5071020;28;20488;-87
2021/04/09 07:11:39;;;;;;;14.30;8.33;;;;;;;10.81;43.20;96325.97;5067615;28;20486;-89
2021/04/09 07:14:06;;;;;;;17.10;7.80;;;;;;;10.78;43.97;96316.94;5066830;28;20432;-88
2021/04/09 07:16:34;;;;;;;14.13;8.07;;;;;;;10.52;44.67;96320.75;5067237;28;20487;-87
2021/04/09 07:19:04;;;;;;;15.60;7.50;;;;;;;10.58;43.96;96315.19;5067986;28;20959;-87
2021/04/09 07:21:31;;;;;;;13.67;6.67;;;;;;;10.57;44.70;96311.75;5067748;28;20462;-88
2021/04/09 07:24:19;;;;;;;14.30;7.10;;;;;;;10.52;44.12;96315.38;5068549;28;20469;-87
2021/04/09 07:26:47;;;;;;;10.37;6.77;;;;;;;10.65;44.31;96309.75;5067802;28;20917;-88
2021/04/09 07:29:39;;;;;;;16.17;7.10;;;;;;;10.65;44.02;96309.06;5068280;28;21130;-88
2021/04/09 07:32:36;;;;;;;15.27;7.40;;;;;;;10.87;43.21;96302.19;5067748;28;20473;-92
2021/04/09 07:35:11;;;;;;;8.27;6.77;;;;;;;11.22;42.45;96307.31;5005491;28;20912;-91
2021/04/09 07:37:53;;;;;;;13.43;6.60;;;;;;;11.28;42.30;96296.28;5055902;28;20416;-91
2021/04/09 07:40:23;;;;;;;12.23;6.70;;;;;;;11.40;42.16;96297.34;5066839;28;20425;-91
2021/04/09 07:42:54;;;;;;;9.40;6.13;;;;;;;11.59;41.60;96305.00;5068875;28;20527;-91
2021/04/09 07:45:33;;;;;;;10.53;5.70;;;;;;;11.37;41.26;96295.72;5065768;28;20516;-92
2021/04/09 07:48:01;;;;;;;7.70;6.20;;;;;;;11.23;41.92;96287.13;5067741;28;20492;-91
2021/04/09 07:50:42;;;;;;;10.80;6.23;;;;;;;11.18;42.14;96290.75;5066290;28;20460;-90
2021/04/09 07:53:16;;;;;;;12.70;5.60;;;;;;;11.13;42.46;96291.66;5064484;28;20449;-88
2021/04/09 07:55:42;;;;;;;11.00;6.30;;;;;;;11.02;42.17;96288.66;5066199;28;20414;-88
2021/04/09 07:58:14;;;;;;;10.93;5.03;;;;;;;10.73;42.38;96288.91;5065236;28;20564;-88
2021/04/09 08:00:41;;;;;;;11.87;6.40;;;;;;;10.60;42.75;96293.75;5065706;28;20432;-88
2021/04/09 08:03:08;;;;;;;10.30;5.93;;;;;;;10.58;43.13;96294.31;5070438;28;20549;-90
2021/04/09 08:05:34;;;;;;;11.93;6.00;;;;;;;10.62;43.44;96293.94;5070573;28;20417;-90
2021/04/09 08:08:04;;;;;;;8.07;5.60;;;;;;;10.72;43.40;96295.53;5068779;28;20488;-90
2021/04/09 08:10:33;;;;;;;11.87;5.70;;;;;;;10.86;43.42;96295.34;5068852;28;20489;-91
2021/04/09 08:13:09;;;;;;;8.43;4.77;;;;;;;10.98;43.08;96278.22;5070257;28;20470;-93
2021/04/09 08:15:36;;;;;;;12.77;6.03;;;;;;;10.89;42.80;96280.75;5067883;28;20533;-90
2021/04/09 08:18:07;;;;;;;11.77;5.60;;;;;;;10.99;42.92;96273.53;5064911;28;20493;-91
2021/04/09 08:20:35;;;;;;;16.43;5.53;;;;;;;10.97;42.37;96274.06;5067036;28;20517;-91
2021/04/09 08:23:07;;;;;;;8.60;5.50;;;;;;;11.14;42.19;96281.59;5067414;28;20471;-90
2021/04/09 08:25:34;;;;;;;10.57;5.83;;;;;;;11.12;41.79;96273.31;5067525;28;20879;-90
2021/04/09 08:28:01;;;;;;;5.33;4.80;;;;;;;11.05;42.64;96276.75;5065382;28;20427;-90
2021/04/09 08:30:30;;;;;;;10.57;5.47;;;;;;;11.05;43.14;96274.78;5065487;28;20453;-89
2021/04/09 08:33:11;;;;;;;14.33;6.50;;;;;;;11.18;43.41;96271.16;5067118;28;20452;-93
2021/04/09 08:35:39;;;;;;;9.63;5.23;;;;;;;11.35;43.40;96271.25;5068797;28;20428;-91
2021/04/09 08:38:10;;;;;;;8.27;4.87;;;;;;;11.43;43.93;96271.94;5073080;28;20435;-89
2021/04/09 08:40:37;;;;;;;12.50;5.10;;;;;;;11.58;43.20;96274.56;5066569;28;20381;-91
2021/04/09 08:45:54;;;;;;;10.30;5.90;;;;;;;11.80;41.99;96281.84;5067976;28;20432;-93
2021/04/09 09:06:42;;;;;;;8.73;5.60;;;;;;;11.80;42.88;96259.50;5065555;28;20502;-91
2021/04/09 09:09:08;;;;;;;11.43;5.33;;;;;;;11.91;42.45;96258.34;5070578;28;20458;-91
2021/04/09 09:11:52;;;;;;;8.70;4.40;;;;;;;12.14;42.06;96269.72;5076589;28;20501;-91
2021/04/09 09:14:44;;;;;;;7.70;4.30;;;;;;;12.11;40.47;96260.72;5084968;28;20419;-89
2021/04/09 09:17:41;;;;;;;9.03;4.20;;;;;;;12.12;39.82;96247.94;5083389;28;20930;-88
2021/04/09 09:20:10;;;;;;;7.20;4.27;;;;;;;12.28;39.27;96254.63;5071372;28;20457;-92
2021/04/09 09:23:09;;;;;;;7.37;3.80;;;;;;;12.18;39.21;96256.53;5098133;28;20516;-91
2021/04/09 09:25:41;;;;;;;6.50;4.20;;;;;;;12.32;38.37;96244.16;5097705;28;20453;-93
2021/04/09 09:28:16;;;;;;;8.90;4.53;;;;;;;12.44;37.79;96250.53;5086645;28;20883;-91
2021/04/09 09:30:43;;;;;;;8.80;3.97;;;;;;;12.65;38.04;96250.19;5084858;28;20513;-94
2021/04/09 09:33:24;;;;;;;5.87;3.43;;;;;;;12.64;37.80;96254.16;5083784;28;20468;-93
2021/04/09 09:36:01;;;;;;;5.20;2.90;;;;;;;12.57;37.76;96244.81;5086541;28;20466;-91
2021/04/09 09:38:48;;;;;;;4.83;3.77;;;;;;;12.63;37.13;96245.31;5082623;28;20425;-90
2021/04/09 09:41:48;;;;;;;12.60;3.70;;;;;;;12.81;35.60;96246.03;5084353;28;20461;-90
2021/04/09 09:44:28;;;;;;;5.17;3.40;;;;;;;12.90;35.34;96246.09;5022618;28;20428;-90
2021/04/09 09:46:56;;;;;;;4.90;3.10;;;;;;;13.00;35.19;96248.19;5024424;28;20539;-92
2021/04/09 09:49:23;;;;;;;5.90;3.00;;;;;;;13.13;34.32;96251.28;5061259;28;20509;-93
2021/04/09 09:51:49;;;;;;;4.73;3.07;;;;;;;13.19;34.36;96256.47;5090647;28;20478;-92
2021/04/09 09:54:36;;;;;;;6.40;2.97;;;;;;;13.11;32.91;96248.44;5091830;28;20476;-93
2021/04/09 09:57:36;;;;;;;5.93;3.23;;;;;;;13.14;33.41;96241.19;5079879;28;20469;-90
2021/04/09 10:00:04;;;;;;;4.83;2.97;;;;;;;13.15;33.37;96245.34;5086678;28;20592;-89
2021/04/09 10:02:30;;;;;;;4.93;3.13;;;;;;;13.26;33.01;96247.53;5088181;28;20456;-90
2021/04/09 10:04:57;;;;;;;9.60;3.07;;;;;;;13.31;32.84;96238.47;5098007;28;20438;-89
2021/04/09 10:10:48;;;;;;;6.53;2.97;;;;;;;13.52;33.11;96233.28;5098724;28;20429;-90
2021/04/09 10:13:19;;;;;;;4.70;2.80;;;;;;;13.62;32.89;96239.50;5088034;28;20448;-90
2021/04/09 10:15:46;;;;;;;5.83;3.13;;;;;;;13.83;33.11;96228.16;5083982;28;20487;-90
2021/04/09 10:18:14;;;;;;;9.57;3.60;;;;;;;14.00;32.68;96232.81;5083523;28;20449;-88
2021/04/09 10:20:40;;;;;;;8.13;4.20;;;;;;;14.12;32.78;96218.13;5083197;28;20536;-89
2021/04/09 10:23:08;;;;;;;2.90;2.30;;;;;;;14.15;32.20;96216.28;5082645;28;20525;-91
2021/04/09 10:25:37;;;;;;;9.90;3.37;;;;;;;14.14;32.22;96217.56;5068661;28;20515;-89
2021/04/09 10:28:13;;;;;;;12.60;3.70;;;;;;;14.16;32.13;96220.44;5084442;28;20460;-90
2021/04/09 10:30:40;;;;;;;7.83;3.23;;;;;;;14.18;31.58;96210.44;5084822;28;20449;-90
2021/04/09 10:36:24;;;;;;;5.93;3.50;;;;;;;14.21;32.44;96216.72;5074462;28;20454;-90
2021/04/09 10:38:52;;;;;;;3.90;2.77;;;;;;;14.27;32.31;96209.75;5083611;28;20445;-91
2021/04/09 10:41:26;;;;;;;6.03;3.67;;;;;;;14.17;32.70;96213.69;5066295;28;20453;-90
2021/04/09 10:43:58;;;;;;;6.83;3.30;;;;;;;14.31;33.01;96217.47;5063339;28;20525;-91
2021/04/09 10:46:25;;;;;;;6.30;3.37;;;;;;;14.27;32.75;96214.44;5061474;28;20477;-91
2021/04/09 10:48:58;;;;;;;4.70;3.20;;;;;;;14.38;32.39;96206.47;5061445;28;20503;-91
2021/04/09 10:51:28;;;;;;;7.90;3.30;;;;;;;14.21;32.72;96205.88;5061574;28;20466;-91
2021/04/09 10:53:55;;;;;;;8.13;2.50;;;;;;;14.28;32.94;96205.03;5063465;28;20470;-89
2021/04/09 10:56:22;;;;;;;7.40;3.10;;;;;;;14.31;33.18;96203.88;5061013;28;20537;-90
2021/04/09 10:58:48;;;;;;;8.97;3.07;;;;;;;14.30;33.10;96199.72;5062127;28;20435;-91
2021/04/09 11:01:15;;;;;;;5.30;3.00;;;;;;;14.32;33.08;96194.44;5063861;28;20486;-91
2021/04/09 11:03:41;;;;;;;9.03;3.53;;;;;;;14.33;33.55;96195.91;5066127;28;20493;-90
2021/04/09 11:06:09;;;;;;;3.87;2.90;;;;;;;14.24;33.90;96185.72;5065079;28;20534;-92
2021/04/09 11:08:39;;;;;;;7.33;3.10;;;;;;;14.39;33.65;96180.06;5068203;28;20468;-90
2021/04/09 11:11:09;;;;;;;6.30;3.03;;;;;;;14.42;33.26;96181.63;5070848;28;20452;-90
2021/04/09 11:13:38;;;;;;;5.13;3.10;;;;;;;14.40;33.62;96182.22;5069265;28;20457;-90
2021/04/09 11:16:06;;;;;;;7.83;3.40;;;;;;;14.31;33.49;96179.47;5069589;28;20444;-91
2021/04/09 11:18:49;;;;;;;9.23;3.50;;;;;;;14.41;32.93;96178.19;5067688;28;20573;-91
2021/04/09 11:21:16;;;;;;;5.17;3.10;;;;;;;14.31;33.02;96174.03;5067181;28;20471;-90
2021/04/09 11:23:43;;;;;;;11.33;3.83;;;;;;;14.26;33.25;96169.56;5067777;28;20571;-91
2021/04/09 11:26:19;;;;;;;7.63;3.30;;;;;;;14.37;33.19;96169.78;5067418;28;20446;-91
2021/04/09 11:28:52;;;;;;;4.87;3.23;;;;;;;14.46;33.48;96168.34;5069217;28;20490;-91
2021/04/09 11:31:24;;;;;;;5.10;3.23;;;;;;;14.54;33.03;96160.78;5078755;28;20473;-91
2021/04/09 11:34:03;;;;;;;4.40;3.33;;;;;;;14.53;32.58;96166.78;5078315;28;20457;-93
2021/04/09 11:36:29;;;;;;;8.10;3.20;;;;;;;14.54;32.94;96160.78;5067522;28;20434;-91
2021/04/09 11:39:07;;;;;;;4.10;2.87;;;;;;;14.44;32.63;96157.34;5085541;28;20445;-91
2021/04/09 11:41:35;;;;;;;4.10;2.87;;;;;;;14.53;33.09;96153.94;5087196;28;20507;-92
2021/04/09 11:44:26;;;;;;;6.80;3.07;;;;;;;14.54;32.55;96147.19;5085705;28;20434;-91
2021/04/09 11:46:53;;;;;;;4.90;2.57;;;;;;;14.66;32.74;96141.94;5085634;28;20406;-90
2021/04/09 11:49:28;;;;;;;4.63;2.83;;;;;;;14.70;32.39;96142.91;5085642;28;20553;-92
2021/04/09 11:51:59;;;;;;;6.60;3.27;;;;;;;14.68;32.62;96145.50;5092268;28;20481;-92
2021/04/09 11:54:31;;;;;;;7.40;3.07;;;;;;;14.75;32.22;96133.06;5100254;28;20433;-90
2021/04/09 11:56:59;;;;;;;6.30;3.77;;;;;;;14.78;32.30;96138.06;5100339;28;20445;-90
2021/04/09 11:59:26;;;;;;;7.43;3.47;;;;;;;14.73;32.48;96122.75;5100281;28;20452;-92
2021/04/09 12:01:53;;;;;;;9.03;3.93;;;;;;;14.84;32.30;96124.91;5100222;28;20465;-92
2021/04/09 12:04:33;;;;;;;4.70;3.37;;;;;;;15.02;32.39;96115.28;5099955;28;20483;-90
2021/04/09 12:07:00;;;;;;;7.60;3.70;;;;;;;15.19;32.45;96124.53;5093073;28;20427;-92
2021/04/09 12:09:26;;;;;;;5.80;3.23;;;;;;;15.40;31.77;96121.88;5088955;28;20493;-92
2021/04/09 12:11:54;;;;;;;3.57;3.03;;;;;;;15.54;30.99;96114.69;5090297;28;20428;-91